Time;durP1;ratioP1;P1;durP2;ratioP2;P2;SDS_P1;SDS_P2;PMS_P1;PMS_P2;Temp;Humidity;BMP_temperature;BMP_pressure;BME280_temperature;BME280_humidity;BME280_pressure;Samples;Min_cycle;Max_cycle;Signal;HPM_P1;HPM_P2
2023/12/09 00:00:03;;;;;;;3.70;2.10;;;;;;;2.46;100.00;100777.97;5034040;28;20479;-70
2023/12/09 00:02:31;;;;;;;3.87;2.37;;;;;;;2.43;100.00;100787.28;5034140;28;20434;-69
2023/12/09 00:04:58;;;;;;;7.93;3.13;;;;;;;2.44;100.00;100783.59;5034023;28;20487;-70
2023/12/09 00:07:25;;;;;;;3.90;1.73;;;;;;;2.45;100.00;100787.06;5034331;28;20463;-70
2023/12/09 00:09:50;;;;;;;3.20;1.70;;;;;;;2.43;100.00;100786.47;5033900;28;20985;-70
2023/12/09 00:12:17;;;;;;;7.23;3.80;;;;;;;2.46;100.00;100789.47;5034805;28;20455;-69
2023/12/09 00:14:44;;;;;;;3.47;1.47;;;;;;;2.44;100.00;100788.94;5034267;28;20589;-70
2023/12/09 00:17:10;;;;;;;6.73;3.57;;;;;;;2.42;100.00;100779.50;5033924;28;20487;-70
2023/12/09 00:19:38;;;;;;;3.57;2.50;;;;;;;2.45;100.00;100784.38;5034443;28;20862;-70
2023/12/09 00:22:05;;;;;;;6.10;3.47;;;;;;;2.47;100.00;100783.06;5034260;28;20468;-70
2023/12/09 00:24:32;;;;;;;7.53;3.87;;;;;;;2.49;100.00;100797.03;5034485;28;20550;-70
2023/12/09 00:26:58;;;;;;;5.53;3.13;;;;;;;2.48;100.00;100787.38;5034044;28;20442;-70
2023/12/09 00:29:25;;;;;;;5.30;1.67;;;;;;;2.48;100.00;100786.59;5034058;28;20526;-70
2023/12/09 00:31:51;;;;;;;2.70;1.30;;;;;;;2.55;100.00;100781.88;5034622;28;20621;-70
2023/12/09 00:34:18;;;;;;;3.33;2.57;;;;;;;2.56;100.00;100796.84;5034459;28;20495;-70
2023/12/09 00:36:46;;;;;;;3.87;2.33;;;;;;;2.55;100.00;100803.25;5034273;28;20518;-70
2023/12/09 00:39:12;;;;;;;6.53;2.30;;;;;;;2.57;100.00;100800.34;5034147;28;20965;-70
2023/12/09 00:41:39;;;;;;;5.67;1.90;;;;;;;2.59;100.00;100799.06;5034370;28;20471;-70
2023/12/09 00:44:06;;;;;;;3.90;2.30;;;;;;;2.58;100.00;100797.44;5034215;28;20542;-70
2023/12/09 00:46:32;;;;;;;6.77;2.10;;;;;;;2.60;100.00;100794.50;5034201;28;20557;-70
2023/12/09 00:48:59;;;;;;;2.30;0.90;;;;;;;2.58;100.00;100801.97;5034707;28;20478;-70
2023/12/09 00:51:26;;;;;;;3.20;1.70;;;;;;;2.60;100.00;100799.84;5034286;28;20566;-70
2023/12/09 00:53:54;;;;;;;6.00;2.67;;;;;;;2.58;100.00;100800.09;5034291;28;20455;-70
2023/12/09 00:56:20;;;;;;;3.70;1.37;;;;;;;2.60;100.00;100803.34;5034033;28;21050;-70
2023/12/09 00:58:47;;;;;;;3.60;2.40;;;;;;;2.61;100.00;100802.31;5034184;28;21033;-70
2023/12/09 01:01:14;;;;;;;4.33;2.47;;;;;;;2.61;100.00;100801.47;5034657;28;20435;-70
2023/12/09 01:03:40;;;;;;;4.07;2.40;;;;;;;2.61;100.00;100804.97;5034012;28;20542;-70
2023/12/09 01:06:07;;;;;;;6.20;3.00;;;;;;;2.61;100.00;100802.31;5034045;28;20438;-70
2023/12/09 01:08:34;;;;;;;5.30;2.90;;;;;;;2.57;100.00;100800.34;5034109;28;20439;-70
2023/12/09 01:11:02;;;;;;;4.37;2.20;;;;;;;2.54;100.00;100807.00;5034197;28;20470;-70
2023/12/09 01:13:30;;;;;;;5.30;2.83;;;;;;;2.56;100.00;100812.91;5033768;28;20474;-70
2023/12/09 01:15:56;;;;;;;7.33;2.17;;;;;;;2.56;100.00;100807.56;5047681;22;20499;-68
2023/12/09 01:18:23;;;;;;;5.70;2.87;;;;;;;2.56;100.00;100817.44;5033429;28;20485;-68
2023/12/09 01:20:50;;;;;;;4.40;2.83;;;;;;;2.56;100.00;100820.91;5033469;28;20493;-70
2023/12/09 01:23:16;;;;;;;5.00;3.30;;;;;;;2.57;100.00;100817.22;5033562;28;20442;-69
2023/12/09 01:25:43;;;;;;;9.73;3.33;;;;;;;2.62;100.00;100808.47;5033591;28;20451;-68
2023/12/09 01:28:11;;;;;;;5.50;2.07;;;;;;;2.61;100.00;100815.69;5033459;28;20435;-70
2023/12/09 01:30:38;;;;;;;5.07;3.53;;;;;;;2.63;100.00;100816.22;5033272;28;20518;-71
2023/12/09 01:33:04;;;;;;;2.87;1.07;;;;;;;2.61;100.00;100807.66;5033551;28;20447;-69
2023/12/09 01:35:31;;;;;;;3.93;2.00;;;;;;;2.59;100.00;100817.78;5033489;28;20549;-69
2023/12/09 01:37:58;;;;;;;6.10;4.13;;;;;;;2.58;100.00;100816.16;5033091;28;20902;-69
2023/12/09 01:40:24;;;;;;;3.47;2.37;;;;;;;2.59;100.00;100804.41;5033079;28;20439;-70
2023/12/09 01:42:51;;;;;;;5.13;2.73;;;;;;;2.62;100.00;100803.94;5033100;28;20439;-69
2023/12/09 01:45:20;;;;;;;5.50;2.47;;;;;;;2.63;100.00;100797.50;5032692;28;20473;-70
2023/12/09 01:47:47;;;;;;;7.77;4.17;;;;;;;2.61;100.00;100804.16;5032673;28;21015;-70
2023/12/09 01:50:15;;;;;;;6.73;1.63;;;;;;;2.61;100.00;100796.97;5033730;28;20447;-69
2023/12/09 01:52:42;;;;;;;5.23;2.00;;;;;;;2.66;100.00;100794.38;5032693;28;20526;-69
2023/12/09 01:55:11;;;;;;;4.63;2.60;;;;;;;2.62;100.00;100803.94;5033047;28;20451;-70
2023/12/09 01:57:38;;;;;;;3.13;2.13;;;;;;;2.63;100.00;100805.53;5032977;28;20483;-70
2023/12/09 02:00:06;;;;;;;9.90;4.37;;;;;;;2.67;100.00;100808.53;5032963;28;20526;-70
2023/12/09 02:02:34;;;;;;;3.90;2.73;;;;;;;2.67;100.00;100809.34;5036509;28;20526;-70
2023/12/09 02:05:02;;;;;;;3.40;1.67;;;;;;;2.68;100.00;100805.63;5036438;28;20494;-70
2023/12/09 02:07:28;;;;;;;6.40;2.57;;;;;;;2.67;100.00;100803.19;5036273;28;20954;-70
2023/12/09 02:09:55;;;;;;;6.30;3.07;;;;;;;2.69;100.00;100801.06;5036258;28;20478;-70
2023/12/09 02:12:31;;;;;;;3.30;1.70;;;;;;;2.73;100.00;100805.69;5036401;28;20441;-70
2023/12/09 02:15:03;;;;;;;8.93;4.30;;;;;;;2.74;100.00;100796.59;5036206;28;20462;-70
2023/12/09 02:17:37;;;;;;;4.40;2.20;;;;;;;2.73;100.00;100797.66;5036055;28;20842;-70
2023/12/09 02:20:06;;;;;;;9.40;2.80;;;;;;;2.72;100.00;100795.25;5035971;28;20472;-70
2023/12/09 02:22:33;;;;;;;3.33;2.53;;;;;;;2.74;100.00;100790.44;5036216;28;20449;-70
2023/12/09 02:25:01;;;;;;;2.30;1.23;;;;;;;2.74;100.00;100796.59;5036790;28;20811;-69
2023/12/09 02:27:33;;;;;;;4.87;2.80;;;;;;;2.73;100.00;100797.66;5036610;28;20443;-70
2023/12/09 02:30:09;;;;;;;5.53;3.23;;;;;;;2.69;100.00;100804.56;5036408;28;20428;-70
2023/12/09 02:32:36;;;;;;;2.87;1.57;;;;;;;2.70;100.00;100803.53;5036454;28;20419;-70
2023/12/09 02:35:07;;;;;;;4.57;1.43;;;;;;;2.74;100.00;100801.97;5035915;28;20841;-70
2023/12/09 02:37:35;;;;;;;7.00;3.10;;;;;;;2.78;100.00;100803.09;5035855;28;20459;-70
2023/12/09 02:40:06;;;;;;;3.67;2.77;;;;;;;2.81;100.00;100801.00;5035896;28;20459;-70
2023/12/09 02:42:33;;;;;;;11.73;3.27;;;;;;;2.78;100.00;100789.72;5036355;28;20432;-70
2023/12/09 02:45:00;;;;;;;3.30;1.53;;;;;;;2.83;100.00;100796.19;5035807;28;20556;-70
2023/12/09 02:47:26;;;;;;;3.00;2.07;;;;;;;2.82;100.00;100792.72;5036216;28;20457;-70
2023/12/09 02:49:54;;;;;;;8.27;3.10;;;;;;;2.86;100.00;100796.53;5036003;28;20447;-70
2023/12/09 02:52:20;;;;;;;6.87;1.90;;;;;;;2.84;100.00;100793.31;5036093;28;20450;-70
2023/12/09 02:54:47;;;;;;;6.00;2.23;;;;;;;2.82;100.00;100790.03;5035435;28;20473;-70
2023/12/09 02:57:15;;;;;;;7.67;3.77;;;;;;;2.75;100.00;100782.19;5035540;28;20506;-70
2023/12/09 02:59:42;;;;;;;5.00;2.30;;;;;;;2.83;100.00;100785.50;5035528;28;20501;-70
2023/12/09 03:02:09;;;;;;;3.00;0.73;;;;;;;2.87;100.00;100789.31;5035468;28;20499;-70
2023/12/09 03:04:36;;;;;;;9.53;3.73;;;;;;;2.91;100.00;100793.13;5035289;28;20550;-70
2023/12/09 03:07:02;;;;;;;12.40;3.17;;;;;;;2.92;100.00;100789.38;5035676;28;20518;-70
2023/12/09 03:09:29;;;;;;;2.47;1.23;;;;;;;2.94;100.00;100793.44;5035355;28;20530;-70
2023/12/09 03:11:56;;;;;;;8.47;3.93;;;;;;;2.94;100.00;100792.63;5035796;28;20439;-70
2023/12/09 03:14:24;;;;;;;7.83;1.03;;;;;;;2.91;100.00;100798.47;5034847;28;20876;-71
2023/12/09 03:16:50;;;;;;;5.67;3.07;;;;;;;2.90;100.00;100794.19;5034974;28;20455;-70
2023/12/09 03:19:17;;;;;;;4.97;3.03;;;;;;;2.91;100.00;100788.56;5035252;28;20834;-70
2023/12/09 03:21:44;;;;;;;4.47;1.50;;;;;;;2.92;100.00;100795.56;5035242;28;20467;-71
2023/12/09 03:24:11;;;;;;;5.23;2.80;;;;;;;2.92;100.00;100792.06;5035128;28;20534;-70
2023/12/09 03:26:38;;;;;;;4.90;2.60;;;;;;;2.92;100.00;100792.06;5035016;28;20542;-71
2023/12/09 03:29:04;;;;;;;16.33;4.77;;;;;;;2.92;100.00;100792.06;5035158;28;20530;-70
2023/12/09 03:31:32;;;;;;;8.33;3.50;;;;;;;2.91;100.00;100796.59;5034878;28;20443;-70
2023/12/09 03:33:59;;;;;;;7.23;3.53;;;;;;;2.93;100.00;100786.47;5034561;28;21032;-70
2023/12/09 03:36:26;;;;;;;4.70;1.80;;;;;;;2.93;100.00;100794.50;5035373;28;20977;-70
2023/12/09 03:38:53;;;;;;;4.13;2.10;;;;;;;2.93;100.00;100791.84;5035096;28;20522;-70
2023/12/09 03:41:19;;;;;;;5.40;1.53;;;;;;;2.91;100.00;100788.56;5034673;28;20497;-70
2023/12/09 03:43:46;;;;;;;3.43;2.20;;;;;;;2.89;100.00;100793.38;5035195;28;20463;-70
2023/12/09 03:46:13;;;;;;;6.13;2.47;;;;;;;2.91;100.00;100793.13;5034661;28;20998;-70
2023/12/09 03:48:41;;;;;;;5.80;3.00;;;;;;;2.89;100.00;100787.22;5034319;28;20522;-70
2023/12/09 03:51:08;;;;;;;3.70;1.60;;;;;;;2.92;100.00;100787.53;5034705;28;20443;-70
2023/12/09 03:53:35;;;;;;;7.07;4.73;;;;;;;2.96;100.00;100796.69;5034874;28;20474;-70
2023/12/09 03:56:01;;;;;;;3.90;2.20;;;;;;;2.99;100.00;100806.91;5034853;28;20466;-70
2023/12/09 03:58:28;;;;;;;2.87;1.70;;;;;;;2.94;100.00;100800.66;5034552;28;20545;-70
2023/12/09 04:00:54;;;;;;;7.00;3.40;;;;;;;2.92;100.00;100790.22;5034136;28;20435;-69
2023/12/09 04:03:22;;;;;;;8.03;3.00;;;;;;;2.96;100.00;100795.88;5034298;28;20544;-70
2023/12/09 04:05:50;;;;;;;4.43;2.03;;;;;;;2.99;100.00;100798.06;5034230;28;20453;-70
2023/12/09 04:08:16;;;;;;;7.00;3.17;;;;;;;3.00;100.00;100789.78;5034244;28;20860;-70
2023/12/09 04:10:43;;;;;;;3.83;2.00;;;;;;;2.99;100.00;100798.88;5034876;28;20443;-70
2023/12/09 04:13:10;;;;;;;12.83;2.70;;;;;;;3.02;100.00;100792.22;5034062;28;20470;-70
2023/12/09 04:15:38;;;;;;;5.97;2.60;;;;;;;3.02;100.00;100797.59;5033928;28;20561;-70
2023/12/09 04:18:05;;;;;;;4.33;2.17;;;;;;;2.98;100.00;100801.81;5033754;28;20478;-70
2023/12/09 04:20:32;;;;;;;6.33;2.30;;;;;;;3.00;100.00;100805.03;5034158;28;20435;-71
2023/12/09 04:23:00;;;;;;;7.17;2.00;;;;;;;3.01;100.00;100803.97;5034112;28;20947;-71
2023/12/09 04:25:26;;;;;;;7.30;3.50;;;;;;;2.98;100.00;100812.50;5033775;28;20542;-70
2023/12/09 04:27:54;;;;;;;5.70;1.40;;;;;;;3.02;100.00;100809.09;5033901;28;20478;-70
2023/12/09 04:30:21;;;;;;;4.03;1.97;;;;;;;3.06;100.00;100812.09;5034130;28;20474;-71
2023/12/09 04:32:48;;;;;;;7.17;3.70;;;;;;;3.02;100.00;100803.75;5034060;28;20450;-71
2023/12/09 04:35:15;;;;;;;5.23;3.10;;;;;;;3.06;100.00;100804.06;5033686;28;21058;-71
2023/12/09 04:37:42;;;;;;;5.03;3.70;;;;;;;3.04;100.00;100800.81;5033861;28;20962;-71
2023/12/09 04:40:12;;;;;;;17.33;2.93;;;;;;;3.06;100.00;100806.75;5033814;28;20855;-71
2023/12/09 04:42:38;;;;;;;3.30;2.00;;;;;;;3.07;100.00;100800.31;5033858;28;20535;-71
2023/12/09 04:45:06;;;;;;;4.70;1.90;;;;;;;3.09;100.00;100802.75;5033994;28;20495;-71
2023/12/09 04:47:33;;;;;;;11.73;5.30;;;;;;;3.14;100.00;100794.78;5033496;28;20839;-71
2023/12/09 04:50:00;;;;;;;7.40;4.80;;;;;;;3.10;100.00;100794.50;5034122;28;20527;-71
2023/12/09 04:52:26;;;;;;;4.20;1.63;;;;;;;3.09;100.00;100794.72;5033355;28;20967;-71
2023/12/09 04:54:54;;;;;;;2.33;1.43;;;;;;;3.14;100.00;100800.13;5033662;28;20490;-71
2023/12/09 04:57:22;;;;;;;8.63;2.73;;;;;;;3.14;100.00;100800.94;5033579;28;20443;-71
2023/12/09 04:59:49;;;;;;;6.00;1.73;;;;;;;3.15;100.00;100794.56;5033436;28;20497;-71
2023/12/09 05:02:16;;;;;;;2.77;1.27;;;;;;;3.13;100.00;100785.94;5033543;28;20481;-71
2023/12/09 05:04:43;;;;;;;7.60;2.60;;;;;;;3.14;100.00;100790.25;5033685;28;20534;-71
2023/12/09 05:07:09;;;;;;;10.30;3.17;;;;;;;3.14;100.00;100792.91;5033106;28;20443;-71
2023/12/09 05:09:36;;;;;;;5.00;2.53;;;;;;;3.15;100.00;100791.06;5033130;28;20503;-71
2023/12/09 05:12:02;;;;;;;8.90;3.43;;;;;;;3.15;100.00;100775.03;5033408;28;20534;-71
2023/12/09 05:14:31;;;;;;;6.57;2.57;;;;;;;3.19;100.00;100781.50;5033271;28;20469;-71
2023/12/09 05:16:57;;;;;;;5.07;1.50;;;;;;;3.10;100.00;100788.31;5033008;28;21015;-68
2023/12/09 05:19:24;;;;;;;4.30;2.70;;;;;;;3.09;100.00;100778.66;5033209;28;20485;-68
2023/12/09 05:21:51;;;;;;;9.87;2.73;;;;;;;3.10;100.00;100772.25;5032981;28;20953;-70
2023/12/09 05:24:18;;;;;;;5.80;2.67;;;;;;;3.09;100.00;100771.44;5033416;28;21017;-71
2023/12/09 05:26:44;;;;;;;12.10;4.00;;;;;;;3.09;100.00;100760.75;5033440;28;20449;-71
2023/12/09 05:29:11;;;;;;;2.77;1.50;;;;;;;3.06;100.00;100766.59;5033352;28;20522;-71
2023/12/09 05:31:40;;;;;;;8.73;4.30;;;;;;;3.01;100.00;100762.00;5033141;28;20526;-72
2023/12/09 05:34:07;;;;;;;4.90;2.83;;;;;;;3.10;100.00;100767.72;5033249;28;20470;-71
2023/12/09 05:36:34;;;;;;;8.13;2.30;;;;;;;3.11;100.00;100755.97;5034847;28;20533;-72
2023/12/09 05:39:00;;;;;;;6.50;3.27;;;;;;;3.09;100.00;100747.34;5037044;28;20896;-72
2023/12/09 05:41:27;;;;;;;4.87;2.43;;;;;;;3.09;100.00;100743.88;5037009;28;20551;-71
2023/12/09 05:43:53;;;;;;;2.60;2.03;;;;;;;3.13;100.00;100748.47;5036907;28;20466;-72
2023/12/09 05:46:20;;;;;;;6.10;3.73;;;;;;;3.17;100.00;100736.22;5037019;28;20939;-72
2023/12/09 05:48:49;;;;;;;12.43;2.93;;;;;;;3.23;100.00;100739.78;5036860;28;20475;-71
2023/12/09 05:51:16;;;;;;;8.30;4.57;;;;;;;3.28;100.00;100729.97;5037329;28;20521;-72
2023/12/09 05:53:43;;;;;;;9.93;3.13;;;;;;;3.30;100.00;100740.41;5036666;28;20454;-71
2023/12/09 05:56:11;;;;;;;7.30;2.97;;;;;;;3.31;100.00;100741.22;5036882;28;20475;-71
2023/12/09 05:58:39;;;;;;;17.00;2.97;;;;;;;3.32;100.00;100737.47;5036673;28;20569;-71
2023/12/09 06:01:05;;;;;;;5.20;1.90;;;;;;;3.33;100.00;100733.75;5036621;28;20501;-71
2023/12/09 06:03:32;;;;;;;4.90;1.20;;;;;;;3.35;100.00;100742.34;5036522;28;20828;-72
2023/12/09 06:06:00;;;;;;;3.07;1.47;;;;;;;3.40;100.00;100739.72;5036870;28;20701;-71
2023/12/09 06:08:27;;;;;;;6.00;2.40;;;;;;;3.42;100.00;100735.75;5036627;28;20431;-71
2023/12/09 06:10:53;;;;;;;6.83;2.10;;;;;;;3.40;100.00;100731.69;5036618;28;20867;-71
2023/12/09 06:13:20;;;;;;;3.60;1.87;;;;;;;3.44;100.00;100732.81;5036038;28;20474;-71
2023/12/09 06:15:47;;;;;;;4.20;2.30;;;;;;;3.43;100.00;100740.03;5036227;28;20967;-71
2023/12/09 06:18:13;;;;;;;4.50;2.50;;;;;;;3.41;100.00;100735.97;5036521;28;20485;-71
2023/12/09 06:20:40;;;;;;;10.07;2.63;;;;;;;3.43;100.00;100731.19;5036216;28;20437;-71
2023/12/09 06:23:08;;;;;;;8.03;1.97;;;;;;;3.41;100.00;100734.13;5036327;28;20451;-71
2023/12/09 06:25:35;;;;;;;4.53;2.33;;;;;;;3.37;100.00;100738.38;5036187;28;20558;-71
2023/12/09 06:28:01;;;;;;;5.93;3.63;;;;;;;3.35;100.00;100731.63;5036136;28;20443;-71
2023/12/09 06:30:28;;;;;;;2.70;0.83;;;;;;;3.36;100.00;100730.56;5035754;28;20893;-71
2023/12/09 06:32:55;;;;;;;8.63;2.87;;;;;;;3.34;100.00;100741.53;5036262;28;20446;-70
2023/12/09 06:35:21;;;;;;;6.90;3.00;;;;;;;3.29;100.00;100742.28;5035993;28;20987;-69
2023/12/09 06:37:48;;;;;;;6.60;1.83;;;;;;;3.25;100.00;100737.69;5035999;28;20877;-70
2023/12/09 06:40:16;;;;;;;14.20;2.03;;;;;;;3.23;100.00;100748.63;5035777;28;20489;-69
2023/12/09 06:42:43;;;;;;;3.07;1.70;;;;;;;3.26;100.00;100750.78;5036338;28;20474;-69
2023/12/09 06:45:10;;;;;;;10.00;3.00;;;;;;;3.27;100.00;100756.97;5035797;28;20528;-69
2023/12/09 06:47:36;;;;;;;7.37;3.30;;;;;;;3.29;100.00;100761.03;5035570;28;20833;-69
2023/12/09 06:50:03;;;;;;;6.13;2.93;;;;;;;3.33;100.00;100765.88;5035379;28;20955;-69
2023/12/09 06:52:30;;;;;;;5.93;2.37;;;;;;;3.34;100.00;100764.81;5035742;28;20443;-68
2023/12/09 06:54:56;;;;;;;4.20;2.47;;;;;;;3.40;100.00;100766.50;5035571;28;20557;-68
2023/12/09 06:57:25;;;;;;;13.73;4.10;;;;;;;3.37;100.00;100761.66;5035987;28;20537;-70
2023/12/09 06:59:51;;;;;;;5.60;2.70;;;;;;;3.31;100.00;100767.97;5035231;28;20994;-69
2023/12/09 07:02:18;;;;;;;13.60;2.77;;;;;;;3.35;100.00;100764.56;5035800;28;20471;-69
2023/12/09 07:04:45;;;;;;;5.63;2.30;;;;;;;3.32;100.00;100765.09;5035374;28;20891;-69
2023/12/09 07:07:11;;;;;;;4.90;2.20;;;;;;;3.31;100.00;100762.63;5035780;28;20538;-69
2023/12/09 07:09:38;;;;;;;11.53;1.97;;;;;;;3.29;100.00;100750.31;5035597;28;20931;-69
2023/12/09 07:12:05;;;;;;;4.40;1.83;;;;;;;3.35;100.00;100758.41;5035415;28;20526;-69
2023/12/09 07:17:12;;;;;;;4.00;1.77;;;;;;;3.43;100.00;100748.06;5033191;28;20554;-64
2023/12/09 07:19:39;;;;;;;8.80;4.13;;;;;;;3.45;100.00;100759.34;5034867;28;20851;-63
2023/12/09 07:22:06;;;;;;;7.50;3.97;;;;;;;3.48;100.00;100760.72;5035228;28;20467;-63
2023/12/09 07:24:32;;;;;;;7.67;3.97;;;;;;;3.50;100.00;100767.44;5035009;28;20565;-63
2023/12/09 07:26:59;;;;;;;6.23;2.60;;;;;;;3.52;100.00;100772.53;5035056;28;20533;-63
2023/12/09 07:29:26;;;;;;;6.07;2.43;;;;;;;3.51;100.00;100757.53;5034982;28;20526;-64
2023/12/09 07:31:54;;;;;;;3.40;1.17;;;;;;;3.43;100.00;100758.78;5034984;28;20441;-63
2023/12/09 07:34:20;;;;;;;4.33;1.63;;;;;;;3.46;100.00;100771.69;5035185;28;20546;-63
2023/12/09 07:36:47;;;;;;;3.03;0.70;;;;;;;3.51;100.00;100760.22;5035039;28;20546;-63
2023/12/09 07:39:13;;;;;;;5.80;3.00;;;;;;;3.52;100.00;100765.31;5034699;28;20487;-63
2023/12/09 07:41:41;;;;;;;6.13;2.43;;;;;;;3.54;100.00;100762.38;5035061;28;20526;-63
2023/12/09 07:44:07;;;;;;;6.83;2.80;;;;;;;3.59;100.00;100754.44;5034984;28;20495;-63
2023/12/09 07:46:34;;;;;;;7.80;3.83;;;;;;;3.64;100.00;100762.50;5034368;28;20478;-63
2023/12/09 07:49:02;;;;;;;6.97;3.33;;;;;;;3.62;100.00;100753.09;5034950;28;20494;-63
2023/12/09 07:51:29;;;;;;;5.80;3.00;;;;;;;3.67;100.00;100756.63;5034957;28;20463;-63
2023/12/09 07:53:56;;;;;;;3.37;1.90;;;;;;;3.74;100.00;100761.81;5034692;28;20485;-63
2023/12/09 07:56:22;;;;;;;7.60;3.20;;;;;;;3.78;100.00;100779.00;5034576;28;20439;-64
2023/12/09 07:58:49;;;;;;;3.57;1.43;;;;;;;3.78;100.00;100779.81;5033801;28;20522;-63
2023/12/09 08:01:15;;;;;;;5.13;3.03;;;;;;;3.77;100.00;100775.53;5034510;28;20443;-64
2023/12/09 08:03:42;;;;;;;3.40;2.03;;;;;;;3.79;100.00;100770.72;5033937;28;21022;-63
2023/12/09 08:06:11;;;;;;;4.67;1.80;;;;;;;3.79;100.00;100765.34;5033985;28;20447;-64
2023/12/09 08:08:38;;;;;;;9.57;3.33;;;;;;;3.82;100.00;100764.06;5034255;28;20454;-63
2023/12/09 08:11:05;;;;;;;5.73;2.37;;;;;;;3.83;100.00;100767.53;5034515;28;20924;-64
2023/12/09 08:13:32;;;;;;;11.00;2.47;;;;;;;3.92;100.00;100768.72;5034091;28;20447;-65
2023/12/09 08:15:59;;;;;;;4.73;1.37;;;;;;;3.95;100.00;100762.84;5034115;28;20958;-65
2023/12/09 08:18:25;;;;;;;5.13;2.10;;;;;;;3.94;100.00;100758.53;5033895;28;20439;-63
2023/12/09 08:20:52;;;;;;;6.30;1.47;;;;;;;3.87;100.00;100763.31;5034125;28;20490;-63
2023/12/09 08:23:20;;;;;;;5.93;3.33;;;;;;;3.91;100.00;100762.53;5033979;28;20940;-65
2023/12/09 08:25:47;;;;;;;5.77;1.90;;;;;;;3.92;100.00;100749.94;5034200;28;20450;-66
2023/12/09 08:28:14;;;;;;;4.13;1.83;;;;;;;3.88;100.00;100751.50;5033971;28;20927;-66
2023/12/09 08:30:41;;;;;;;6.50;2.33;;;;;;;3.92;100.00;100741.91;5033930;28;20435;-65
2023/12/09 08:33:07;;;;;;;3.93;2.17;;;;;;;3.95;100.00;100749.44;5034128;28;20443;-65
2023/12/09 08:35:34;;;;;;;4.53;1.90;;;;;;;3.97;100.00;100752.69;5033751;28;20469;-65
2023/12/09 08:38:01;;;;;;;6.30;2.80;;;;;;;3.92;100.00;100741.91;5033534;28;20423;-65
2023/12/09 08:40:29;;;;;;;4.07;1.80;;;;;;;3.97;100.00;100752.69;5033622;28;20478;-65
2023/12/09 08:42:55;;;;;;;5.60;2.10;;;;;;;4.04;100.00;100750.63;5033534;28;20435;-65
2023/12/09 08:45:22;;;;;;;6.03;2.17;;;;;;;4.07;100.00;100747.41;5033576;28;20470;-65
2023/12/09 08:47:49;;;;;;;4.50;2.40;;;;;;;4.09;100.00;100750.66;5033529;28;20986;-65
2023/12/09 08:50:15;;;;;;;4.90;2.33;;;;;;;4.08;100.00;100746.38;5033911;28;20449;-65
2023/12/09 08:52:42;;;;;;;5.33;2.00;;;;;;;4.11;100.00;100745.84;5033203;28;20919;-65
2023/12/09 08:55:09;;;;;;;15.03;3.90;;;;;;;4.14;100.00;100739.97;5033782;28;20494;-65
2023/12/09 08:57:37;;;;;;;4.20;2.00;;;;;;;4.12;100.00;100739.44;5033239;28;20446;-65
2023/12/09 09:00:08;;;;;;;4.03;1.50;;;;;;;4.14;100.00;100737.31;5033801;28;20479;-65
2023/12/09 09:02:34;;;;;;;6.77;1.63;;;;;;;4.19;100.00;100734.66;5033709;28;20822;-65
2023/12/09 09:05:03;;;;;;;4.23;1.83;;;;;;;4.23;100.00;100733.09;5033510;28;20959;-65
2023/12/09 09:07:29;;;;;;;3.23;1.07;;;;;;;4.28;100.00;100735.00;5033397;28;20497;-65
2023/12/09 09:09:56;;;;;;;4.77;1.53;;;;;;;4.33;100.00;100736.91;5033929;28;20516;-65
2023/12/09 09:12:23;;;;;;;4.90;3.20;;;;;;;4.35;100.00;100729.44;5037489;28;20439;-65
2023/12/09 09:14:50;;;;;;;7.97;4.23;;;;;;;4.27;100.00;100722.66;5037289;28;20465;-65
2023/12/09 09:17:17;;;;;;;5.30;1.90;;;;;;;4.27;100.00;100728.84;5037775;28;20568;-65
2023/12/09 09:19:44;;;;;;;7.17;3.30;;;;;;;4.30;100.00;100727.53;5037292;28;20478;-65
2023/12/09 09:22:11;;;;;;;4.10;1.33;;;;;;;4.36;100.00;100723.00;5037793;28;20526;-65
2023/12/09 09:24:37;;;;;;;3.50;1.40;;;;;;;4.36;100.00;100731.06;5037954;28;20513;-65
2023/12/09 09:27:04;;;;;;;4.80;3.07;;;;;;;4.40;100.00;100727.59;5037762;28;20439;-66
2023/12/09 09:29:31;;;;;;;4.20;1.93;;;;;;;4.44;100.00;100722.53;5037362;28;20439;-65
2023/12/09 09:31:59;;;;;;;6.87;1.93;;;;;;;4.46;100.00;100725.75;5037316;28;20438;-65
2023/12/09 09:34:26;;;;;;;4.40;2.10;;;;;;;4.45;100.00;100734.88;5037158;28;20463;-65
2023/12/09 09:36:53;;;;;;;6.60;2.00;;;;;;;4.48;100.00;100718.28;5037453;28;20482;-65
2023/12/09 09:39:19;;;;;;;6.03;1.83;;;;;;;4.45;100.00;100724.97;5037185;28;20475;-65
2023/12/09 09:42:04;;;;;;;3.50;2.00;;;;;;;4.50;100.00;100726.88;5036964;28;20910;-65
2023/12/09 09:44:37;;;;;;;4.97;1.87;;;;;;;4.52;100.00;100722.88;5037098;28;20812;-66
2023/12/09 09:47:07;;;;;;;3.93;2.03;;;;;;;4.57;100.00;100722.09;5036681;28;20514;-64
2023/12/09 09:49:36;;;;;;;6.40;2.47;;;;;;;4.62;100.00;100715.97;5036603;28;20884;-65
2023/12/09 09:52:03;;;;;;;7.10;3.07;;;;;;;4.59;100.00;100706.53;5036960;28;20439;-65
2023/12/09 09:54:31;;;;;;;12.03;2.03;;;;;;;4.53;100.00;100711.06;5036690;28;20459;-66
2023/12/09 09:56:59;;;;;;;4.30;2.27;;;;;;;4.57;100.00;100700.66;5036726;28;20534;-64
2023/12/09 09:59:26;;;;;;;8.73;3.63;;;;;;;4.56;100.00;100693.66;5036697;28;20446;-64
2023/12/09 10:01:53;;;;;;;4.37;2.70;;;;;;;4.59;100.00;100697.69;5036977;28;20435;-64
2023/12/09 10:04:21;;;;;;;2.60;1.30;;;;;;;4.63;100.00;100690.75;5036197;28;20979;-64
2023/12/09 10:06:49;;;;;;;3.30;1.20;;;;;;;4.72;100.00;100683.81;5036753;28;20439;-64
2023/12/09 10:09:16;;;;;;;2.90;1.47;;;;;;;4.70;100.00;100689.47;5036363;28;20441;-64
2023/12/09 10:11:43;;;;;;;4.83;2.57;;;;;;;4.72;100.00;100690.00;5036581;28;20519;-64
2023/12/09 10:14:09;;;;;;;5.47;1.77;;;;;;;4.75;100.00;100686.00;5036289;28;20474;-64
2023/12/09 10:16:36;;;;;;;4.70;1.53;;;;;;;4.70;100.00;100688.66;5036398;28;20490;-64
2023/12/09 10:19:03;;;;;;;3.60;1.67;;;;;;;4.70;100.00;100686.78;5036241;28;20439;-64
2023/12/09 10:21:31;;;;;;;5.63;2.57;;;;;;;4.73;100.00;100688.13;5035078;28;20482;-64
2023/12/09 10:23:57;;;;;;;4.27;1.77;;;;;;;4.79;100.00;100681.72;5036260;28;20512;-64
2023/12/09 10:26:24;;;;;;;5.70;2.03;;;;;;;4.83;100.00;100682.03;5036272;28;20490;-64
2023/12/09 10:28:51;;;;;;;5.20;2.70;;;;;;;4.90;100.00;100678.03;5036179;28;20523;-64
2023/12/09 10:31:18;;;;;;;5.53;3.27;;;;;;;4.96;100.00;100674.31;5036432;28;20435;-65
2023/12/09 10:33:45;;;;;;;6.53;3.10;;;;;;;5.04;100.00;100672.97;5035839;28;20895;-64
2023/12/09 10:36:11;;;;;;;5.33;1.90;;;;;;;5.11;100.00;100665.50;5036119;28;20463;-64
2023/12/09 10:38:43;;;;;;;12.23;2.80;;;;;;;5.16;100.00;100656.66;5036143;28;20442;-64
2023/12/09 10:41:12;;;;;;;5.60;1.67;;;;;;;5.21;100.00;100651.31;5036353;28;20467;-64
2023/12/09 10:43:40;;;;;;;2.30;1.10;;;;;;;5.22;100.00;100645.69;5035889;28;20465;-64
2023/12/09 10:46:07;;;;;;;4.37;2.03;;;;;;;5.23;100.00;100641.13;5035919;28;21018;-64
2023/12/09 10:48:34;;;;;;;3.90;1.60;;;;;;;5.23;100.00;100636.56;5035589;28;20478;-65
2023/12/09 10:51:01;;;;;;;3.63;2.00;;;;;;;5.24;100.00;100630.09;5035694;28;20522;-64
2023/12/09 10:53:28;;;;;;;6.33;2.10;;;;;;;5.31;100.00;100624.47;5036159;28;20446;-64
2023/12/09 10:55:56;;;;;;;4.43;2.47;;;;;;;5.35;100.00;100614.81;5035626;28;20454;-64
2023/12/09 10:58:24;;;;;;;5.97;1.67;;;;;;;5.30;100.00;100612.94;5035300;28;20912;-64
2023/12/09 11:00:52;;;;;;;8.37;3.17;;;;;;;5.34;100.00;100617.78;5035686;28;20491;-64
2023/12/09 11:03:20;;;;;;;7.50;2.20;;;;;;;5.35;100.00;100608.63;5035869;28;20461;-65
2023/12/09 11:05:52;;;;;;;2.90;1.37;;;;;;;5.26;100.00;100601.09;5035784;28;20447;-64
2023/12/09 11:08:20;;;;;;;5.90;2.00;;;;;;;5.29;100.00;100599.78;5035756;28;20431;-64
2023/12/09 11:10:48;;;;;;;3.23;1.40;;;;;;;5.34;100.00;100602.47;5035682;28;20443;-64
2023/12/09 11:13:18;;;;;;;5.63;2.33;;;;;;;5.35;100.00;100597.91;5034969;28;20946;-64
2023/12/09 11:15:45;;;;;;;12.30;2.80;;;;;;;5.54;100.00;100590.97;5034845;28;20487;-64
2023/12/09 11:18:16;;;;;;;4.33;1.80;;;;;;;5.63;100.00;100578.59;5035173;28;20474;-64
2023/12/09 11:20:44;;;;;;;7.83;1.97;;;;;;;5.73;100.00;100578.59;5035091;28;20554;-64
2023/12/09 11:23:12;;;;;;;6.37;3.20;;;;;;;5.87;100.00;100578.06;5034761;28;20458;-66
2023/12/09 11:25:40;;;;;;;6.43;2.33;;;;;;;5.82;100.00;100571.63;5035139;28;20501;-64